Kaye E. Moran — WDB6244 — position and weather

sailwx.info

Track history (hours):
 
Tides and Currents Weather Stations Pressure Air Temp Water Temp Dewpoint Dewpoint Depression Visibility Wind Speed Wind Dir Waves Ship Positions

Kaye E. Moran

Owner: MORAN TOWING CORPORATION, New Canaan, CT. More information available from US FCC via Universal Licensing System and Coast Guard Vessel Documentation Center.

Last reported at 2018-Feb-24 15:31 UTC. Time now 2018-Feb-24 15:50 UTC.
Position N 36°50' W 076°16'.

; draft 4.2 m.

Type: Tug. MMSI: 366920510.

Date/timePositionNaut miles runAvg speedWind from/ knotsBaromVisibWave heightAir tempDewpointWater temp
2018-Feb-24 15:31N 36°50' W 076°16'0 0.0
2018-Feb-24 15:00N 36°50' W 076°16'0 0.0
2018-Feb-24 14:24N 36°50' W 076°16'3 7.2
2018-Feb-24 14:01N 36°52' W 076°19'1 1.7
2018-Feb-24 13:26N 36°53' W 076°20'1 2.1
2018-Feb-24 12:55N 36°54' W 076°20'1 1.8
2018-Feb-24 12:30N 36°53' W 076°20'2 3.4
2018-Feb-24 12:00N 36°51' W 076°19'0 0.0
2018-Feb-24 11:18N 36°51' W 076°19'0 0.0
2018-Feb-24 10:59N 36°51' W 076°19'0 0.0
2018-Feb-24 09:28N 36°51' W 076°19'0 0.0
2018-Feb-24 08:56N 36°51' W 076°19'0 0.0
2018-Feb-24 05:32N 36°51' W 076°19'0 0.0
2018-Feb-24 05:25N 36°51' W 076°19'0 0.0
2018-Feb-24 04:00N 36°51' W 076°19'0 0.0
2018-Feb-24 03:30N 36°51' W 076°19'0 0.0
2018-Feb-24 03:01N 36°51' W 076°19'0 0.0
2018-Feb-24 02:30N 36°51' W 076°19'0 0.0
2018-Feb-24 01:59N 36°51' W 076°19'3 5.7
2018-Feb-24 01:31N 36°49' W 076°17'0 0.0
2018-Feb-24 01:00N 36°49' W 076°17'0 0.0
2018-Feb-24 00:30N 36°49' W 076°17'0 0.0
2018-Feb-24 00:01N 36°49' W 076°17'0 0.0
2018-Feb-23 23:30N 36°49' W 076°17'2 3.6
2018-Feb-23 23:00N 36°51' W 076°18'1 2.9
2018-Feb-23 22:31N 36°51' W 076°20'0 0.6
2018-Feb-23 21:58N 36°52' W 076°19'1 2.2
2018-Feb-23 21:22N 36°53' W 076°20'0 0.5
2018-Feb-23 20:23N 36°53' W 076°20'0 0.0
2018-Feb-23 20:00N 36°53' W 076°20'1 1.1
2018-Feb-23 18:51N 36°51' W 076°19'1 1.8
2018-Feb-23 18:31N 36°52' W 076°20'1 2.4
2018-Feb-23 18:00N 36°52' W 076°21'1 1.9
2018-Feb-23 17:30N 36°53' W 076°20'2 3.3
2018-Feb-23 16:58N 36°55' W 076°20'2 3.9
2018-Feb-23 16:27N 36°53' W 076°20'0 0.4
2018-Feb-23 16:00N 36°53' W 076°20'0 0.4
2018-Feb-23 15:26N 36°53' W 076°20'2 4.8
2018-Feb-23 14:59N 36°51' W 076°18'2 3.4
2018-Feb-23 14:31N 36°50' W 076°16'0 0.0
2018-Feb-23 14:00N 36°50' W 076°16'0 0.0
2018-Feb-23 13:31N 36°50' W 076°16'0 0.0
2018-Feb-23 13:01N 36°50' W 076°16'0 0.0
2018-Feb-23 12:30N 36°50' W 076°16'0 0.0
2018-Feb-23 12:00N 36°50' W 076°16'0 0.0
2018-Feb-23 11:30N 36°50' W 076°16'0 0.0
2018-Feb-23 11:00N 36°50' W 076°16'0 0.0
2018-Feb-23 10:30N 36°50' W 076°16'0 0.0
2018-Feb-23 10:00N 36°50' W 076°16'0 0.0
2018-Feb-23 09:31N 36°50' W 076°16'0 0.0
2018-Feb-23 09:01N 36°50' W 076°16'0 0.0
2018-Feb-23 08:30N 36°50' W 076°16'0 0.0
2018-Feb-23 08:01N 36°50' W 076°16'0 0.0
2018-Feb-23 07:30N 36°50' W 076°16'0 0.0
2018-Feb-23 07:01N 36°50' W 076°16'0 0.0
2018-Feb-23 06:30N 36°50' W 076°16'0 0.0
2018-Feb-23 06:01N 36°50' W 076°16'0 0.0
2018-Feb-23 05:31N 36°50' W 076°16'0 0.0
2018-Feb-23 05:00N 36°50' W 076°16'0 0.0
2018-Feb-23 04:30N 36°50' W 076°16'0 0.0
2018-Feb-23 03:56N 36°50' W 076°16'0 0.0
2018-Feb-23 03:30N 36°50' W 076°16'0 0.0
2018-Feb-23 03:01N 36°50' W 076°16'0 0.0
2018-Feb-23 02:30N 36°50' W 076°16'0 0.0
2018-Feb-23 02:00N 36°50' W 076°16'0 0.0
2018-Feb-23 01:30N 36°50' W 076°16'0 0.0
2018-Feb-23 01:00N 36°50' W 076°16'0 0.0
2018-Feb-23 00:30N 36°50' W 076°16'5 7.7
2018-Feb-22 23:54N 36°54' W 076°20'2 3.4
2018-Feb-22 23:28N 36°55' W 076°20'0 0.4
2018-Feb-22 22:55N 36°56' W 076°20'1 2.7
2018-Feb-22 22:30N 36°57' W 076°20'1 1.6
2018-Feb-22 21:59N 36°56' W 076°20'0 0.0
2018-Feb-22 21:28N 36°56' W 076°20'0 0.0
2018-Feb-22 20:54N 36°56' W 076°20'1 1.7
2018-Feb-22 20:26N 36°55' W 076°20'1 1.9
2018-Feb-22 20:00N 36°54' W 076°20'0 0.7
2018-Feb-22 19:24N 36°55' W 076°20'0 0.0
2018-Feb-22 18:59N 36°55' W 076°20'1 1.3
2018-Feb-22 18:30N 36°54' W 076°20'2 3.3
2018-Feb-22 18:00N 36°53' W 076°20'0 0.0
2018-Feb-22 17:30N 36°53' W 076°20'0 0.1
2018-Feb-22 16:49N 36°53' W 076°20'0 0.1
2018-Feb-22 16:28N 36°53' W 076°20'0 0.2
2018-Feb-22 16:00N 36°53' W 076°20'3 6.0
2018-Feb-22 15:30N 36°51' W 076°17'1 1.8
2018-Feb-22 15:00N 36°50' W 076°16'0 0.0
2018-Feb-22 14:27N 36°50' W 076°16'0 0.0
2018-Feb-22 14:01N 36°50' W 076°16'0 0.0
2018-Feb-22 13:29N 36°50' W 076°16'2 3.2
2018-Feb-22 13:00N 36°51' W 076°18'1 1.9
2018-Feb-22 12:29N 36°52' W 076°19'0 0.4
2018-Feb-22 11:58N 36°52' W 076°19'0 0.6
2018-Feb-22 11:30N 36°51' W 076°20'2 2.9
2018-Feb-22 11:00N 36°53' W 076°20'0 0.8
2018-Feb-22 10:30N 36°53' W 076°20'1 0.5
2018-Feb-22 07:54N 36°51' W 076°19'0 0.5
2018-Feb-22 07:30N 36°52' W 076°19'0 0.1
2018-Feb-22 05:53N 36°51' W 076°19'0 0.0
2018-Feb-22 04:54N 36°51' W 076°19'4 9.0
2018-Feb-22 04:26N 36°56' W 076°20'4 6.7
2018-Feb-22 03:54N 36°57' W 076°24'1 1.8
2018-Feb-22 03:29N 36°58' W 076°25'1 1.6
2018-Feb-22 02:53N 36°57' W 076°24'4 8.2
2018-Feb-22 02:27N 36°55' W 076°20'4 9.6
2018-Feb-22 01:59N 36°51' W 076°18'3 6.5
2018-Feb-22 01:30N 36°48' W 076°17'0 0.2
2018-Feb-22 01:00N 36°48' W 076°17'2 3.6
2018-Feb-22 00:30N 36°50' W 076°18'2 3.2
2018-Feb-22 00:01N 36°51' W 076°19'2 4.4
2018-Feb-21 23:30N 36°49' W 076°17'1 2.3
2018-Feb-21 23:00N 36°48' W 076°17'0 0.7
2018-Feb-21 22:30N 36°48' W 076°17'3 3.5
2018-Feb-21 21:33N 36°51' W 076°19'0 0.1
2018-Feb-21 20:46N 36°52' W 076°19'2 8.1
2018-Feb-21 20:30N 36°50' W 076°18'0 0.2
2018-Feb-21 20:00N 36°50' W 076°17'0 0.0
2018-Feb-21 19:30N 36°50' W 076°17'0 0.7
2018-Feb-21 19:00N 36°50' W 076°18'1 2.0
2018-Feb-21 18:30N 36°51' W 076°18'1 1.5
2018-Feb-21 17:43N 36°51' W 076°19'0 0.5
2018-Feb-21 17:29N 36°52' W 076°19'2 4.5
2018-Feb-21 17:00N 36°50' W 076°18'0 0.1
2018-Feb-21 16:30N 36°50' W 076°18'1 1.2
2018-Feb-21 16:00N 36°50' W 076°18'0 0.5
2018-Feb-21 15:30N 36°51' W 076°18'0 0.3
2018-Feb-21 14:59N 36°51' W 076°18'1 1.4
2018-Feb-21 14:30N 36°51' W 076°18'0 0.0
2018-Feb-21 14:00N 36°51' W 076°18'0 0.0
2018-Feb-21 13:30N 36°51' W 076°18'0 0.1
2018-Feb-21 13:00N 36°51' W 076°18'3 6.4
2018-Feb-21 12:30N 36°48' W 076°17'1 2.4
2018-Feb-21 12:00N 36°49' W 076°17'3 4.9
2018-Feb-21 11:30N 36°52' W 076°19'0 0.0
2018-Feb-21 07:14N 36°51' W 076°19'0 0.0
2018-Feb-21 07:00N 36°51' W 076°19'0 0.5
2018-Feb-21 06:28N 36°52' W 076°19'3 6.7
2018-Feb-21 06:00N 36°49' W 076°17'1 1.6
2018-Feb-21 05:30N 36°48' W 076°17'0 0.1
2018-Feb-21 05:00N 36°48' W 076°17'3 5.6
2018-Feb-21 04:31N 36°51' W 076°18'2 4.1
2018-Feb-21 03:56N 36°53' W 076°20'3 6.6
2018-Feb-21 03:29N 36°56' W 076°20'3 6.1
2018-Feb-21 02:59N 36°53' W 076°21'0 0.1
2018-Feb-21 02:26N 36°53' W 076°21'2 3.9
2018-Feb-21 01:56N 36°55' W 076°20'0 0.7
2018-Feb-21 01:26N 36°55' W 076°20'3 6.9
2018-Feb-21 00:59N 36°52' W 076°19'4 7.4
2018-Feb-21 00:30N 36°49' W 076°17'1 1.3
2018-Feb-21 00:00N 36°48' W 076°17'0 0.1
2018-Feb-20 23:30N 36°48' W 076°17'2 3.9
2018-Feb-20 23:00N 36°50' W 076°18'3 6.8
2018-Feb-20 22:30N 36°53' W 076°20'2 3.2
2018-Feb-20 21:59N 36°55' W 076°20'1 1.5
2018-Feb-20 21:26N 36°55' W 076°20'1 3.1
2018-Feb-20 20:58N 36°57' W 076°20'1 1.4
2018-Feb-20 20:28N 36°56' W 076°20'0 0.0
2018-Feb-20 19:08N 36°56' W 076°20'0 0.0
2018-Feb-20 18:58N 36°56' W 076°20'0 0.0
2018-Feb-20 18:27N 36°56' W 076°20'3 5.5
2018-Feb-20 17:54N 36°53' W 076°20'0 0.2
2018-Feb-20 17:17N 36°53' W 076°20'0 0.2
2018-Feb-20 16:56N 36°53' W 076°20'0 0.1
2018-Feb-20 16:30N 36°53' W 076°20'0 0.0
2018-Feb-20 16:00N 36°53' W 076°20'0 0.0
2018-Feb-20 15:30N 36°53' W 076°20'0 0.0
2018-Feb-20 15:00N 36°53' W 076°20'0 0.0
2018-Feb-20 14:29N 36°53' W 076°20'0 0.0
2018-Feb-20 14:00N 36°53' W 076°20'0 0.0
2018-Feb-20 13:30N 36°53' W 076°20'3 6.2
2018-Feb-20 13:00N 36°56' W 076°20'5 1.7
2018-Feb-20 10:00N 36°58' W 076°26'5 7.2
2018-Feb-20 09:19N 36°56' W 076°20'3 9.6
2018-Feb-20 09:00N 36°53' W 076°20'4 7.8
2018-Feb-20 08:30N 36°50' W 076°18'2 3.8
2018-Feb-20 08:00N 36°48' W 076°18'1 2.6
2018-Feb-20 07:30N 36°49' W 076°17'3 0.4
2018-Feb-20 01:12N 36°51' W 076°19'0 0.0
2018-Feb-20 00:44N 36°51' W 076°19'0 0.0
2018-Feb-19 23:43N 36°51' W 076°19'0 0.0
2018-Feb-19 23:08N 36°51' W 076°19'0 0.0
2018-Feb-19 22:57N 36°51' W 076°19'0 0.1
2018-Feb-19 20:21N 36°51' W 076°19'3 9.0
2018-Feb-19 20:00N 36°49' W 076°17'0 0.6
2018-Feb-19 19:30N 36°48' W 076°17'0 0.3
2018-Feb-19 19:00N 36°48' W 076°17'3 5.4
2018-Feb-19 18:30N 36°51' W 076°18'2 2.4
2018-Feb-19 17:29N 36°53' W 076°20'0 0.0
2018-Feb-19 16:35N 36°53' W 076°20'0 0.0
2018-Feb-19 16:29N 36°53' W 076°20'0 0.0
2018-Feb-19 16:00N 36°53' W 076°20'0 0.0
2018-Feb-19 15:30N 36°53' W 076°20'0 0.0
2018-Feb-19 15:00N 36°53' W 076°20'0 0.0
2018-Feb-19 14:30N 36°53' W 076°20'0 0.0
2018-Feb-19 14:00N 36°53' W 076°20'0 0.0
2018-Feb-19 13:30N 36°53' W 076°20'0 0.2
2018-Feb-19 12:56N 36°53' W 076°20'0 0.3
2018-Feb-19 12:30N 36°53' W 076°20'0 0.1
2018-Feb-19 12:00N 36°53' W 076°20'0 0.1
2018-Feb-19 11:29N 36°53' W 076°20'0 0.0
2018-Feb-19 10:59N 36°53' W 076°20'0 0.0
2018-Feb-19 10:29N 36°53' W 076°20'0 0.0
2018-Feb-19 09:59N 36°53' W 076°20'0 0.4
2018-Feb-19 09:30N 36°53' W 076°20'4 7.3
2018-Feb-19 09:00N 36°50' W 076°16'0 0.2
2018-Feb-19 08:30N 36°50' W 076°16'0 0.0
2018-Feb-19 08:00N 36°50' W 076°16'0 0.0
2018-Feb-19 07:30N 36°50' W 076°16'0 0.0
2018-Feb-19 07:00N 36°50' W 076°16'0 0.0
2018-Feb-19 06:30N 36°50' W 076°16'0 0.0
2018-Feb-19 06:00N 36°50' W 076°16'0 0.0
2018-Feb-19 05:30N 36°50' W 076°16'0 0.0
2018-Feb-19 05:00N 36°50' W 076°16'0 0.0
2018-Feb-19 04:30N 36°50' W 076°16'0 0.0
2018-Feb-19 04:00N 36°50' W 076°16'0 0.0
2018-Feb-19 03:30N 36°50' W 076°16'0 0.0
2018-Feb-19 03:00N 36°50' W 076°16'0 0.0
2018-Feb-19 02:30N 36°50' W 076°16'0 0.0
2018-Feb-19 02:00N 36°50' W 076°16'0 0.0
2018-Feb-19 01:30N 36°50' W 076°16'0 0.0
2018-Feb-19 01:00N 36°50' W 076°16'2 3.1
2018-Feb-19 00:30N 36°51' W 076°18'6 9.8
2018-Feb-18 23:56N 36°56' W 076°20'5 7.8
2018-Feb-18 23:19N 36°58' W 076°26'0 0.0
2018-Feb-18 15:25N 36°58' W 076°26'1 0.6
2018-Feb-18 13:01N 36°57' W 076°25'211.4
2018-Feb-18 12:50N 36°57' W 076°22'2 6.9
2018-Feb-18 12:29N 36°56' W 076°20'3 6.0
2018-Feb-18 12:00N 36°53' W 076°21'0 0.4
2018-Feb-18 11:29N 36°53' W 076°21'0 0.1
2018-Feb-18 11:00N 36°53' W 076°21'0 0.0
2018-Feb-18 10:30N 36°53' W 076°21'2 3.0
2018-Feb-18 10:00N 36°52' W 076°19'3 4.9
2018-Feb-18 09:27N 36°50' W 076°16'0 0.0
2018-Feb-18 09:01N 36°50' W 076°16'0 0.0
2018-Feb-18 08:30N 36°50' W 076°16'0 0.0
2018-Feb-18 08:00N 36°50' W 076°16'0 0.0
2018-Feb-18 07:30N 36°50' W 076°16'0 0.0
2018-Feb-18 06:59N 36°50' W 076°16'0 0.0
2018-Feb-18 06:30N 36°50' W 076°16'0 0.0
2018-Feb-18 06:00N 36°50' W 076°16'0 0.0
2018-Feb-18 05:28N 36°50' W 076°16'0 0.0
2018-Feb-18 05:00N 36°50' W 076°16'0 0.0
2018-Feb-18 04:30N 36°50' W 076°16'0 0.0
2018-Feb-18 03:58N 36°50' W 076°16'0 0.0
2018-Feb-18 03:30N 36°50' W 076°16'0 0.0
2018-Feb-18 03:00N 36°50' W 076°16'0 0.0
2018-Feb-18 02:30N 36°50' W 076°16'0 0.0
2018-Feb-18 01:58N 36°50' W 076°16'0 0.0
2018-Feb-18 01:29N 36°50' W 076°16'0 0.0
2018-Feb-18 01:00N 36°50' W 076°16'0 0.0
2018-Feb-18 00:30N 36°50' W 076°16'0 0.0
2018-Feb-18 00:00N 36°50' W 076°16'0 0.0
2018-Feb-17 23:30N 36°50' W 076°16'0 0.0
2018-Feb-17 23:00N 36°50' W 076°16'0 0.0
2018-Feb-17 22:30N 36°50' W 076°16'0 0.0
2018-Feb-17 22:00N 36°50' W 076°16'0 0.0
2018-Feb-17 21:30N 36°50' W 076°16'2 3.2
2018-Feb-17 21:00N 36°51' W 076°18'3 5.2
2018-Feb-17 20:31N 36°53' W 076°20'1 2.0
2018-Feb-17 20:00N 36°52' W 076°21'0 0.0
2018-Feb-17 19:30N 36°52' W 076°21'0 0.0
2018-Feb-17 18:59N 36°52' W 076°21'2 3.2
2018-Feb-17 18:30N 36°51' W 076°19'0 0.0
2018-Feb-17 18:01N 36°51' W 076°19'0 0.0
2018-Feb-17 17:31N 36°51' W 076°19'0 0.0
2018-Feb-17 17:00N 36°51' W 076°19'0 0.0
2018-Feb-17 16:30N 36°51' W 076°19'0 0.0
2018-Feb-17 16:01N 36°51' W 076°19'0 0.0
2018-Feb-17 15:30N 36°51' W 076°19'5 8.8
2018-Feb-17 14:58N 36°56' W 076°20'5 9.7
2018-Feb-17 14:28N 37°00' W 076°17'7 0.9
2018-Feb-17 07:04N 36°54' W 076°20'1 8.8
2018-Feb-17 07:00N 36°53' W 076°20'0 0.6
2018-Feb-17 06:27N 36°53' W 076°20'0 0.0
2018-Feb-17 06:00N 36°53' W 076°20'0 0.0
2018-Feb-17 05:30N 36°53' W 076°20'0 0.0
2018-Feb-17 05:00N 36°53' W 076°20'0 0.0
2018-Feb-17 04:30N 36°53' W 076°20'0 0.0
2018-Feb-17 04:00N 36°53' W 076°20'0 0.0
2018-Feb-17 03:30N 36°53' W 076°20'0 0.0
2018-Feb-17 03:00N 36°53' W 076°20'0 0.0
2018-Feb-17 02:31N 36°53' W 076°20'0 0.0
2018-Feb-17 02:00N 36°53' W 076°20'0 0.0
2018-Feb-17 01:30N 36°53' W 076°20'0 0.0
2018-Feb-17 01:00N 36°53' W 076°20'2 4.3
2018-Feb-17 00:30N 36°51' W 076°18'3 6.4
2018-Feb-17 00:00N 36°48' W 076°18'0 0.1
2018-Feb-16 23:30N 36°48' W 076°18'2 3.4
2018-Feb-16 23:00N 36°50' W 076°18'3 5.6
2018-Feb-16 22:30N 36°52' W 076°20'1 2.2
2018-Feb-16 21:56N 36°53' W 076°21'1 2.8
2018-Feb-16 21:27N 36°54' W 076°20'0 1.0
2018-Feb-16 20:59N 36°54' W 076°20'2 3.3
2018-Feb-16 20:27N 36°53' W 076°21'2 3.4
2018-Feb-16 19:56N 36°51' W 076°19'0 0.0
2018-Feb-16 19:23N 36°51' W 076°19'0 0.0
2018-Feb-16 19:00N 36°51' W 076°19'0 0.0
2018-Feb-16 18:09N 36°51' W 076°19'0 0.0
2018-Feb-16 17:58N 36°51' W 076°19'2 3.6
2018-Feb-16 17:29N 36°53' W 076°21'1 1.6
2018-Feb-16 16:59N 36°53' W 076°20'0 0.1
2018-Feb-16 16:23N 36°53' W 076°20'0 0.2
2018-Feb-16 16:00N 36°53' W 076°20'0 0.1
2018-Feb-16 15:30N 36°53' W 076°20'0 0.0
2018-Feb-16 15:00N 36°53' W 076°20'1 2.1
2018-Feb-16 14:21N 36°51' W 076°19'0 0.0
2018-Feb-16 12:45N 36°51' W 076°19'0 0.0
2018-Feb-16 12:11N 36°51' W 076°19'0 0.0
2018-Feb-16 11:57N 36°51' W 076°19'0 0.0
2018-Feb-16 11:16N 36°51' W 076°19'0 0.0
2018-Feb-16 10:09N 36°51' W 076°19'0 0.0
2018-Feb-16 09:45N 36°51' W 076°19'0 0.9
2018-Feb-16 09:30N 36°52' W 076°19'0 0.1
2018-Feb-16 09:00N 36°51' W 076°20'1 1.6
2018-Feb-16 08:30N 36°52' W 076°20'1 0.7
2018-Feb-16 07:36N 36°53' W 076°20'0 1.1
2018-Feb-16 07:30N 36°53' W 076°20'1 2.7
2018-Feb-16 06:59N 36°51' W 076°19'0 0.0
2018-Feb-16 06:30N 36°51' W 076°19'0 0.0
2018-Feb-16 06:00N 36°51' W 076°19'0 0.0
2018-Feb-16 05:30N 36°51' W 076°19'0 0.0
2018-Feb-16 05:00N 36°51' W 076°19'0 0.0
2018-Feb-16 04:30N 36°51' W 076°19'0 0.0
2018-Feb-16 04:00N 36°51' W 076°19'0 0.0
2018-Feb-16 03:30N 36°51' W 076°19'0 0.0
2018-Feb-16 03:00N 36°51' W 076°19'0 0.0
2018-Feb-16 02:30N 36°51' W 076°19'0 0.0
2018-Feb-16 02:00N 36°51' W 076°19'0 0.0
2018-Feb-16 01:29N 36°51' W 076°19'0 0.0
2018-Feb-16 01:00N 36°51' W 076°19'0 0.0
2018-Feb-16 00:30N 36°51' W 076°19'0 0.1
2018-Feb-16 00:00N 36°52' W 076°19'1 2.5
2018-Feb-15 23:31N 36°53' W 076°20'0 0.0
2018-Feb-15 23:00N 36°53' W 076°20'2 3.2
2018-Feb-15 22:30N 36°54' W 076°20'3 5.2
2018-Feb-15 21:56N 36°51' W 076°20'0 0.8
2018-Feb-15 21:30N 36°52' W 076°19'1 2.9
2018-Feb-15 21:00N 36°53' W 076°20'1 1.5
2018-Feb-15 20:29N 36°52' W 076°20'3 6.9
2018-Feb-15 20:01N 36°50' W 076°16'0 0.0
2018-Feb-15 19:25N 36°50' W 076°16'0 0.0
2018-Feb-15 18:59N 36°50' W 076°16'0 0.0
2018-Feb-15 18:30N 36°50' W 076°16'0 0.0
2018-Feb-15 18:00N 36°50' W 076°16'0 0.0
2018-Feb-15 17:28N 36°50' W 076°16'0 0.0
2018-Feb-15 17:01N 36°50' W 076°16'0 0.0
2018-Feb-15 16:28N 36°50' W 076°16'0 0.0
2018-Feb-15 16:00N 36°50' W 076°16'3 6.5
2018-Feb-15 15:30N 36°52' W 076°20'1 2.6
2018-Feb-15 15:00N 36°53' W 076°21'1 1.9
2018-Feb-15 14:30N 36°53' W 076°20'1 2.6
2018-Feb-15 13:58N 36°51' W 076°19'0 0.0
2018-Feb-15 12:20N 36°51' W 076°19'0 0.0
2018-Feb-15 11:58N 36°51' W 076°19'0 0.0
2018-Feb-15 11:27N 36°51' W 076°19'3 7.2
2018-Feb-15 10:58N 36°55' W 076°20'1 1.7
2018-Feb-15 10:30N 36°55' W 076°20'0 0.7
2018-Feb-15 10:00N 36°56' W 076°20'0 0.2
2018-Feb-15 08:52N 36°56' W 076°20'0 0.4
2018-Feb-15 08:27N 36°56' W 076°20'0 0.1
2018-Feb-15 07:40N 36°56' W 076°20'0 0.7
2018-Feb-15 07:23N 36°56' W 076°20'0 0.0
2018-Feb-15 06:57N 36°56' W 076°20'3 5.5
2018-Feb-15 06:21N 36°59' W 076°19'3 6.8
2018-Feb-15 05:56N 37°00' W 076°16'3 7.6
2018-Feb-15 05:30N 37°01' W 076°12'3 6.3
2018-Feb-15 05:00N 37°03' W 076°09'5 9.2
2018-Feb-15 04:29N 37°08' W 076°12'5 9.1
2018-Feb-15 03:58N 37°11' W 076°16'1 0.2
2018-Feb-14 20:39N 37°10' W 076°14'3 7.1
2018-Feb-14 20:18N 37°08' W 076°13'2 6.8
2018-Feb-14 19:57N 37°06' W 076°11'3 6.7
2018-Feb-14 19:27N 37°03' W 076°09'3 5.4
2018-Feb-14 18:57N 37°01' W 076°11'5 9.7
2018-Feb-14 18:26N 36°60' W 076°17'5 9.0
2018-Feb-14 17:56N 36°56' W 076°20'4 8.6
2018-Feb-14 17:30N 36°52' W 076°20'4 7.8
2018-Feb-14 17:00N 36°49' W 076°17'0 0.1
2018-Feb-14 16:30N 36°49' W 076°17'0 0.3
2018-Feb-14 16:00N 36°49' W 076°17'  
Track history (hours):
 
Tides and Currents Weather Stations Pressure Air Temp Water Temp Dewpoint Dewpoint Depression Visibility Wind Speed Wind Dir Waves Ship Positions

Kaye E. Moran

Owner: MORAN TOWING CORPORATION, New Canaan, CT. More information available from US FCC via Universal Licensing System and Coast Guard Vessel Documentation Center.

Last reported at 2018-Feb-24 15:31 UTC. Time now 2018-Feb-24 15:50 UTC.
Position N 36°50' W 076°16'.

; draft 4.2 m.

Type: Tug. MMSI: 366920510.

Date/timePositionNaut miles runAvg speedWind from/ knotsBaromVisibWave heightAir tempDewpointWater temp
2018-Feb-24 15:31N 36°50' W 076°16'0 0.0
2018-Feb-24 15:00N 36°50' W 076°16'0 0.0
2018-Feb-24 14:24N 36°50' W 076°16'3 7.2
2018-Feb-24 14:01N 36°52' W 076°19'1 1.7
2018-Feb-24 13:26N 36°53' W 076°20'1 2.1
2018-Feb-24 12:55N 36°54' W 076°20'1 1.8
2018-Feb-24 12:30N 36°53' W 076°20'2 3.4
2018-Feb-24 12:00N 36°51' W 076°19'0 0.0
2018-Feb-24 11:18N 36°51' W 076°19'0 0.0
2018-Feb-24 10:59N 36°51' W 076°19'0 0.0
2018-Feb-24 09:28N 36°51' W 076°19'0 0.0
2018-Feb-24 08:56N 36°51' W 076°19'0 0.0
2018-Feb-24 05:32N 36°51' W 076°19'0 0.0
2018-Feb-24 05:25N 36°51' W 076°19'0 0.0
2018-Feb-24 04:00N 36°51' W 076°19'0 0.0
2018-Feb-24 03:30N 36°51' W 076°19'0 0.0
2018-Feb-24 03:01N 36°51' W 076°19'0 0.0
2018-Feb-24 02:30N 36°51' W 076°19'0 0.0
2018-Feb-24 01:59N 36°51' W 076°19'3 5.7
2018-Feb-24 01:31N 36°49' W 076°17'0 0.0
2018-Feb-24 01:00N 36°49' W 076°17'0 0.0
2018-Feb-24 00:30N 36°49' W 076°17'0 0.0
2018-Feb-24 00:01N 36°49' W 076°17'0 0.0
2018-Feb-23 23:30N 36°49' W 076°17'2 3.6
2018-Feb-23 23:00N 36°51' W 076°18'1 2.9
2018-Feb-23 22:31N 36°51' W 076°20'0 0.6
2018-Feb-23 21:58N 36°52' W 076°19'1 2.2
2018-Feb-23 21:22N 36°53' W 076°20'0 0.5
2018-Feb-23 20:23N 36°53' W 076°20'0 0.0
2018-Feb-23 20:00N 36°53' W 076°20'1 1.1
2018-Feb-23 18:51N 36°51' W 076°19'1 1.8
2018-Feb-23 18:31N 36°52' W 076°20'1 2.4
2018-Feb-23 18:00N 36°52' W 076°21'1 1.9
2018-Feb-23 17:30N 36°53' W 076°20'2 3.3
2018-Feb-23 16:58N 36°55' W 076°20'2 3.9
2018-Feb-23 16:27N 36°53' W 076°20'0 0.4
2018-Feb-23 16:00N 36°53' W 076°20'0 0.4
2018-Feb-23 15:26N 36°53' W 076°20'2 4.8
2018-Feb-23 14:59N 36°51' W 076°18'2 3.4
2018-Feb-23 14:31N 36°50' W 076°16'0 0.0
2018-Feb-23 14:00N 36°50' W 076°16'0 0.0
2018-Feb-23 13:31N 36°50' W 076°16'0 0.0
2018-Feb-23 13:01N 36°50' W 076°16'0 0.0
2018-Feb-23 12:30N 36°50' W 076°16'0 0.0
2018-Feb-23 12:00N 36°50' W 076°16'0 0.0
2018-Feb-23 11:30N 36°50' W 076°16'0 0.0
2018-Feb-23 11:00N 36°50' W 076°16'0 0.0
2018-Feb-23 10:30N 36°50' W 076°16'0 0.0
2018-Feb-23 10:00N 36°50' W 076°16'0 0.0
2018-Feb-23 09:31N 36°50' W 076°16'0 0.0
2018-Feb-23 09:01N 36°50' W 076°16'0 0.0
2018-Feb-23 08:30N 36°50' W 076°16'0 0.0
2018-Feb-23 08:01N 36°50' W 076°16'0 0.0
2018-Feb-23 07:30N 36°50' W 076°16'0 0.0
2018-Feb-23 07:01N 36°50' W 076°16'0 0.0
2018-Feb-23 06:30N 36°50' W 076°16'0 0.0
2018-Feb-23 06:01N 36°50' W 076°16'0 0.0
2018-Feb-23 05:31N 36°50' W 076°16'0 0.0
2018-Feb-23 05:00N 36°50' W 076°16'0 0.0
2018-Feb-23 04:30N 36°50' W 076°16'0 0.0
2018-Feb-23 03:56N 36°50' W 076°16'0 0.0
2018-Feb-23 03:30N 36°50' W 076°16'0 0.0
2018-Feb-23 03:01N 36°50' W 076°16'0 0.0
2018-Feb-23 02:30N 36°50' W 076°16'0 0.0
2018-Feb-23 02:00N 36°50' W 076°16'0 0.0
2018-Feb-23 01:30N 36°50' W 076°16'0 0.0
2018-Feb-23 01:00N 36°50' W 076°16'0 0.0
2018-Feb-23 00:30N 36°50' W 076°16'5 7.7
2018-Feb-22 23:54N 36°54' W 076°20'2 3.4
2018-Feb-22 23:28N 36°55' W 076°20'0 0.4
2018-Feb-22 22:55N 36°56' W 076°20'1 2.7
2018-Feb-22 22:30N 36°57' W 076°20'1 1.6
2018-Feb-22 21:59N 36°56' W 076°20'0 0.0
2018-Feb-22 21:28N 36°56' W 076°20'0 0.0
2018-Feb-22 20:54N 36°56' W 076°20'1 1.7
2018-Feb-22 20:26N 36°55' W 076°20'1 1.9
2018-Feb-22 20:00N 36°54' W 076°20'0 0.7
2018-Feb-22 19:24N 36°55' W 076°20'0 0.0
2018-Feb-22 18:59N 36°55' W 076°20'1 1.3
2018-Feb-22 18:30N 36°54' W 076°20'2 3.3
2018-Feb-22 18:00N 36°53' W 076°20'0 0.0
2018-Feb-22 17:30N 36°53' W 076°20'0 0.1
2018-Feb-22 16:49N 36°53' W 076°20'0 0.1
2018-Feb-22 16:28N 36°53' W 076°20'0 0.2
2018-Feb-22 16:00N 36°53' W 076°20'3 6.0
2018-Feb-22 15:30N 36°51' W 076°17'1 1.8
2018-Feb-22 15:00N 36°50' W 076°16'0 0.0
2018-Feb-22 14:27N 36°50' W 076°16'0 0.0
2018-Feb-22 14:01N 36°50' W 076°16'0 0.0
2018-Feb-22 13:29N 36°50' W 076°16'2 3.2
2018-Feb-22 13:00N 36°51' W 076°18'1 1.9
2018-Feb-22 12:29N 36°52' W 076°19'0 0.4
2018-Feb-22 11:58N 36°52' W 076°19'0 0.6
2018-Feb-22 11:30N 36°51' W 076°20'2 2.9
2018-Feb-22 11:00N 36°53' W 076°20'0 0.8
2018-Feb-22 10:30N 36°53' W 076°20'1 0.5
2018-Feb-22 07:54N 36°51' W 076°19'0 0.5
2018-Feb-22 07:30N 36°52' W 076°19'0 0.1
2018-Feb-22 05:53N 36°51' W 076°19'0 0.0
2018-Feb-22 04:54N 36°51' W 076°19'4 9.0
2018-Feb-22 04:26N 36°56' W 076°20'4 6.7
2018-Feb-22 03:54N 36°57' W 076°24'1 1.8
2018-Feb-22 03:29N 36°58' W 076°25'1 1.6
2018-Feb-22 02:53N 36°57' W 076°24'4 8.2
2018-Feb-22 02:27N 36°55' W 076°20'4 9.6
2018-Feb-22 01:59N 36°51' W 076°18'3 6.5
2018-Feb-22 01:30N 36°48' W 076°17'0 0.2
2018-Feb-22 01:00N 36°48' W 076°17'2 3.6
2018-Feb-22 00:30N 36°50' W 076°18'2 3.2
2018-Feb-22 00:01N 36°51' W 076°19'2 4.4
2018-Feb-21 23:30N 36°49' W 076°17'1 2.3
2018-Feb-21 23:00N 36°48' W 076°17'0 0.7
2018-Feb-21 22:30N 36°48' W 076°17'3 3.5
2018-Feb-21 21:33N 36°51' W 076°19'0 0.1
2018-Feb-21 20:46N 36°52' W 076°19'2 8.1
2018-Feb-21 20:30N 36°50' W 076°18'0 0.2
2018-Feb-21 20:00N 36°50' W 076°17'0 0.0
2018-Feb-21 19:30N 36°50' W 076°17'0 0.7
2018-Feb-21 19:00N 36°50' W 076°18'1 2.0
2018-Feb-21 18:30N 36°51' W 076°18'1 1.5
2018-Feb-21 17:43N 36°51' W 076°19'0 0.5
2018-Feb-21 17:29N 36°52' W 076°19'2 4.5
2018-Feb-21 17:00N 36°50' W 076°18'0 0.1
2018-Feb-21 16:30N 36°50' W 076°18'1 1.2
2018-Feb-21 16:00N 36°50' W 076°18'0 0.5
2018-Feb-21 15:30N 36°51' W 076°18'0 0.3
2018-Feb-21 14:59N 36°51' W 076°18'1 1.4
2018-Feb-21 14:30N 36°51' W 076°18'0 0.0
2018-Feb-21 14:00N 36°51' W 076°18'0 0.0
2018-Feb-21 13:30N 36°51' W 076°18'0 0.1
2018-Feb-21 13:00N 36°51' W 076°18'3 6.4
2018-Feb-21 12:30N 36°48' W 076°17'1 2.4
2018-Feb-21 12:00N 36°49' W 076°17'3 4.9
2018-Feb-21 11:30N 36°52' W 076°19'0 0.0
2018-Feb-21 07:14N 36°51' W 076°19'0 0.0
2018-Feb-21 07:00N 36°51' W 076°19'0 0.5
2018-Feb-21 06:28N 36°52' W 076°19'3 6.7
2018-Feb-21 06:00N 36°49' W 076°17'1 1.6
2018-Feb-21 05:30N 36°48' W 076°17'0 0.1
2018-Feb-21 05:00N 36°48' W 076°17'3 5.6
2018-Feb-21 04:31N 36°51' W 076°18'2 4.1
2018-Feb-21 03:56N 36°53' W 076°20'3 6.6
2018-Feb-21 03:29N 36°56' W 076°20'3 6.1
2018-Feb-21 02:59N 36°53' W 076°21'0 0.1
2018-Feb-21 02:26N 36°53' W 076°21'2 3.9
2018-Feb-21 01:56N 36°55' W 076°20'0 0.7
2018-Feb-21 01:26N 36°55' W 076°20'3 6.9
2018-Feb-21 00:59N 36°52' W 076°19'4 7.4
2018-Feb-21 00:30N 36°49' W 076°17'1 1.3
2018-Feb-21 00:00N 36°48' W 076°17'0 0.1
2018-Feb-20 23:30N 36°48' W 076°17'2 3.9
2018-Feb-20 23:00N 36°50' W 076°18'3 6.8
2018-Feb-20 22:30N 36°53' W 076°20'2 3.2
2018-Feb-20 21:59N 36°55' W 076°20'1 1.5
2018-Feb-20 21:26N 36°55' W 076°20'1 3.1
2018-Feb-20 20:58N 36°57' W 076°20'1 1.4
2018-Feb-20 20:28N 36°56' W 076°20'0 0.0
2018-Feb-20 19:08N 36°56' W 076°20'0 0.0
2018-Feb-20 18:58N 36°56' W 076°20'0 0.0
2018-Feb-20 18:27N 36°56' W 076°20'3 5.5
2018-Feb-20 17:54N 36°53' W 076°20'0 0.2
2018-Feb-20 17:17N 36°53' W 076°20'0 0.2
2018-Feb-20 16:56N 36°53' W 076°20'0 0.1
2018-Feb-20 16:30N 36°53' W 076°20'0 0.0
2018-Feb-20 16:00N 36°53' W 076°20'0 0.0
2018-Feb-20 15:30N 36°53' W 076°20'0 0.0
2018-Feb-20 15:00N 36°53' W 076°20'0 0.0
2018-Feb-20 14:29N 36°53' W 076°20'0 0.0
2018-Feb-20 14:00N 36°53' W 076°20'0 0.0
2018-Feb-20 13:30N 36°53' W 076°20'3 6.2
2018-Feb-20 13:00N 36°56' W 076°20'5 1.7
2018-Feb-20 10:00N 36°58' W 076°26'5 7.2
2018-Feb-20 09:19N 36°56' W 076°20'3 9.6
2018-Feb-20 09:00N 36°53' W 076°20'4 7.8
2018-Feb-20 08:30N 36°50' W 076°18'2 3.8
2018-Feb-20 08:00N 36°48' W 076°18'1 2.6
2018-Feb-20 07:30N 36°49' W 076°17'3 0.4
2018-Feb-20 01:12N 36°51' W 076°19'0 0.0
2018-Feb-20 00:44N 36°51' W 076°19'0 0.0
2018-Feb-19 23:43N 36°51' W 076°19'0 0.0
2018-Feb-19 23:08N 36°51' W 076°19'0 0.0
2018-Feb-19 22:57N 36°51' W 076°19'0 0.1
2018-Feb-19 20:21N 36°51' W 076°19'3 9.0
2018-Feb-19 20:00N 36°49' W 076°17'0 0.6
2018-Feb-19 19:30N 36°48' W 076°17'0 0.3
2018-Feb-19 19:00N 36°48' W 076°17'3 5.4
2018-Feb-19 18:30N 36°51' W 076°18'2 2.4
2018-Feb-19 17:29N 36°53' W 076°20'0 0.0
2018-Feb-19 16:35N 36°53' W 076°20'0 0.0
2018-Feb-19 16:29N 36°53' W 076°20'0 0.0
2018-Feb-19 16:00N 36°53' W 076°20'0 0.0
2018-Feb-19 15:30N 36°53' W 076°20'0 0.0
2018-Feb-19 15:00N 36°53' W 076°20'0 0.0
2018-Feb-19 14:30N 36°53' W 076°20'0 0.0
2018-Feb-19 14:00N 36°53' W 076°20'0 0.0
2018-Feb-19 13:30N 36°53' W 076°20'0 0.2
2018-Feb-19 12:56N 36°53' W 076°20'0 0.3
2018-Feb-19 12:30N 36°53' W 076°20'0 0.1
2018-Feb-19 12:00N 36°53' W 076°20'0 0.1
2018-Feb-19 11:29N 36°53' W 076°20'0 0.0
2018-Feb-19 10:59N 36°53' W 076°20'0 0.0
2018-Feb-19 10:29N 36°53' W 076°20'0 0.0
2018-Feb-19 09:59N 36°53' W 076°20'0 0.4
2018-Feb-19 09:30N 36°53' W 076°20'4 7.3
2018-Feb-19 09:00N 36°50' W 076°16'0 0.2
2018-Feb-19 08:30N 36°50' W 076°16'0 0.0
2018-Feb-19 08:00N 36°50' W 076°16'0 0.0
2018-Feb-19 07:30N 36°50' W 076°16'0 0.0
2018-Feb-19 07:00N 36°50' W 076°16'0 0.0
2018-Feb-19 06:30N 36°50' W 076°16'0 0.0
2018-Feb-19 06:00N 36°50' W 076°16'0 0.0
2018-Feb-19 05:30N 36°50' W 076°16'0 0.0
2018-Feb-19 05:00N 36°50' W 076°16'0 0.0
2018-Feb-19 04:30N 36°50' W 076°16'0 0.0
2018-Feb-19 04:00N 36°50' W 076°16'0 0.0
2018-Feb-19 03:30N 36°50' W 076°16'0 0.0
2018-Feb-19 03:00N 36°50' W 076°16'0 0.0
2018-Feb-19 02:30N 36°50' W 076°16'0 0.0
2018-Feb-19 02:00N 36°50' W 076°16'0 0.0
2018-Feb-19 01:30N 36°50' W 076°16'0 0.0
2018-Feb-19 01:00N 36°50' W 076°16'2 3.1
2018-Feb-19 00:30N 36°51' W 076°18'6 9.8
2018-Feb-18 23:56N 36°56' W 076°20'5 7.8
2018-Feb-18 23:19N 36°58' W 076°26'0 0.0
2018-Feb-18 15:25N 36°58' W 076°26'1 0.6
2018-Feb-18 13:01N 36°57' W 076°25'211.4
2018-Feb-18 12:50N 36°57' W 076°22'2 6.9
2018-Feb-18 12:29N 36°56' W 076°20'3 6.0
2018-Feb-18 12:00N 36°53' W 076°21'0 0.4
2018-Feb-18 11:29N 36°53' W 076°21'0 0.1
2018-Feb-18 11:00N 36°53' W 076°21'0 0.0
2018-Feb-18 10:30N 36°53' W 076°21'2 3.0
2018-Feb-18 10:00N 36°52' W 076°19'3 4.9
2018-Feb-18 09:27N 36°50' W 076°16'0 0.0
2018-Feb-18 09:01N 36°50' W 076°16'0 0.0
2018-Feb-18 08:30N 36°50' W 076°16'0 0.0
2018-Feb-18 08:00N 36°50' W 076°16'0 0.0
2018-Feb-18 07:30N 36°50' W 076°16'0 0.0
2018-Feb-18 06:59N 36°50' W 076°16'0 0.0
2018-Feb-18 06:30N 36°50' W 076°16'0 0.0
2018-Feb-18 06:00N 36°50' W 076°16'0 0.0
2018-Feb-18 05:28N 36°50' W 076°16'0 0.0
2018-Feb-18 05:00N 36°50' W 076°16'0 0.0
2018-Feb-18 04:30N 36°50' W 076°16'0 0.0
2018-Feb-18 03:58N 36°50' W 076°16'0 0.0
2018-Feb-18 03:30N 36°50' W 076°16'0 0.0
2018-Feb-18 03:00N 36°50' W 076°16'0 0.0
2018-Feb-18 02:30N 36°50' W 076°16'0 0.0
2018-Feb-18 01:58N 36°50' W 076°16'0 0.0
2018-Feb-18 01:29N 36°50' W 076°16'0 0.0
2018-Feb-18 01:00N 36°50' W 076°16'0 0.0
2018-Feb-18 00:30N 36°50' W 076°16'0 0.0
2018-Feb-18 00:00N 36°50' W 076°16'0 0.0
2018-Feb-17 23:30N 36°50' W 076°16'0 0.0
2018-Feb-17 23:00N 36°50' W 076°16'0 0.0
2018-Feb-17 22:30N 36°50' W 076°16'0 0.0
2018-Feb-17 22:00N 36°50' W 076°16'0 0.0
2018-Feb-17 21:30N 36°50' W 076°16'2 3.2
2018-Feb-17 21:00N 36°51' W 076°18'3 5.2
2018-Feb-17 20:31N 36°53' W 076°20'1 2.0
2018-Feb-17 20:00N 36°52' W 076°21'0 0.0
2018-Feb-17 19:30N 36°52' W 076°21'0 0.0
2018-Feb-17 18:59N 36°52' W 076°21'2 3.2
2018-Feb-17 18:30N 36°51' W 076°19'0 0.0
2018-Feb-17 18:01N 36°51' W 076°19'0 0.0
2018-Feb-17 17:31N 36°51' W 076°19'0 0.0
2018-Feb-17 17:00N 36°51' W 076°19'0 0.0
2018-Feb-17 16:30N 36°51' W 076°19'0 0.0
2018-Feb-17 16:01N 36°51' W 076°19'0 0.0
2018-Feb-17 15:30N 36°51' W 076°19'5 8.8
2018-Feb-17 14:58N 36°56' W 076°20'5 9.7
2018-Feb-17 14:28N 37°00' W 076°17'7 0.9
2018-Feb-17 07:04N 36°54' W 076°20'1 8.8
2018-Feb-17 07:00N 36°53' W 076°20'0 0.6
2018-Feb-17 06:27N 36°53' W 076°20'0 0.0
2018-Feb-17 06:00N 36°53' W 076°20'0 0.0
2018-Feb-17 05:30N 36°53' W 076°20'0 0.0
2018-Feb-17 05:00N 36°53' W 076°20'0 0.0
2018-Feb-17 04:30N 36°53' W 076°20'0 0.0
2018-Feb-17 04:00N 36°53' W 076°20'0 0.0
2018-Feb-17 03:30N 36°53' W 076°20'0 0.0
2018-Feb-17 03:00N 36°53' W 076°20'0 0.0
2018-Feb-17 02:31N 36°53' W 076°20'0 0.0
2018-Feb-17 02:00N 36°53' W 076°20'0 0.0
2018-Feb-17 01:30N 36°53' W 076°20'0 0.0
2018-Feb-17 01:00N 36°53' W 076°20'2 4.3
2018-Feb-17 00:30N 36°51' W 076°18'3 6.4
2018-Feb-17 00:00N 36°48' W 076°18'0 0.1
2018-Feb-16 23:30N 36°48' W 076°18'2 3.4
2018-Feb-16 23:00N 36°50' W 076°18'3 5.6
2018-Feb-16 22:30N 36°52' W 076°20'1 2.2
2018-Feb-16 21:56N 36°53' W 076°21'1 2.8
2018-Feb-16 21:27N 36°54' W 076°20'0 1.0
2018-Feb-16 20:59N 36°54' W 076°20'2 3.3
2018-Feb-16 20:27N 36°53' W 076°21'2 3.4
2018-Feb-16 19:56N 36°51' W 076°19'0 0.0
2018-Feb-16 19:23N 36°51' W 076°19'0 0.0
2018-Feb-16 19:00N 36°51' W 076°19'0 0.0
2018-Feb-16 18:09N 36°51' W 076°19'0 0.0
2018-Feb-16 17:58N 36°51' W 076°19'2 3.6
2018-Feb-16 17:29N 36°53' W 076°21'1 1.6
2018-Feb-16 16:59N 36°53' W 076°20'0 0.1
2018-Feb-16 16:23N 36°53' W 076°20'0 0.2
2018-Feb-16 16:00N 36°53' W 076°20'0 0.1
2018-Feb-16 15:30N 36°53' W 076°20'0 0.0
2018-Feb-16 15:00N 36°53' W 076°20'1 2.1
2018-Feb-16 14:21N 36°51' W 076°19'0 0.0
2018-Feb-16 12:45N 36°51' W 076°19'0 0.0
2018-Feb-16 12:11N 36°51' W 076°19'0 0.0
2018-Feb-16 11:57N 36°51' W 076°19'0 0.0
2018-Feb-16 11:16N 36°51' W 076°19'0 0.0
2018-Feb-16 10:09N 36°51' W 076°19'0 0.0
2018-Feb-16 09:45N 36°51' W 076°19'0 0.9
2018-Feb-16 09:30N 36°52' W 076°19'0 0.1
2018-Feb-16 09:00N 36°51' W 076°20'1 1.6
2018-Feb-16 08:30N 36°52' W 076°20'1 0.7
2018-Feb-16 07:36N 36°53' W 076°20'0 1.1
2018-Feb-16 07:30N 36°53' W 076°20'1 2.7
2018-Feb-16 06:59N 36°51' W 076°19'0 0.0
2018-Feb-16 06:30N 36°51' W 076°19'0 0.0
2018-Feb-16 06:00N 36°51' W 076°19'0 0.0
2018-Feb-16 05:30N 36°51' W 076°19'0 0.0
2018-Feb-16 05:00N 36°51' W 076°19'0 0.0
2018-Feb-16 04:30N 36°51' W 076°19'0 0.0
2018-Feb-16 04:00N 36°51' W 076°19'0 0.0
2018-Feb-16 03:30N 36°51' W 076°19'0 0.0
2018-Feb-16 03:00N 36°51' W 076°19'0 0.0
2018-Feb-16 02:30N 36°51' W 076°19'0 0.0
2018-Feb-16 02:00N 36°51' W 076°19'0 0.0
2018-Feb-16 01:29N 36°51' W 076°19'0 0.0
2018-Feb-16 01:00N 36°51' W 076°19'0 0.0
2018-Feb-16 00:30N 36°51' W 076°19'0 0.1
2018-Feb-16 00:00N 36°52' W 076°19'1 2.5
2018-Feb-15 23:31N 36°53' W 076°20'0 0.0
2018-Feb-15 23:00N 36°53' W 076°20'2 3.2
2018-Feb-15 22:30N 36°54' W 076°20'3 5.2
2018-Feb-15 21:56N 36°51' W 076°20'0 0.8
2018-Feb-15 21:30N 36°52' W 076°19'1 2.9
2018-Feb-15 21:00N 36°53' W 076°20'1 1.5
2018-Feb-15 20:29N 36°52' W 076°20'3 6.9
2018-Feb-15 20:01N 36°50' W 076°16'0 0.0
2018-Feb-15 19:25N 36°50' W 076°16'0 0.0
2018-Feb-15 18:59N 36°50' W 076°16'0 0.0
2018-Feb-15 18:30N 36°50' W 076°16'0 0.0
2018-Feb-15 18:00N 36°50' W 076°16'0 0.0
2018-Feb-15 17:28N 36°50' W 076°16'0 0.0
2018-Feb-15 17:01N 36°50' W 076°16'0 0.0
2018-Feb-15 16:28N 36°50' W 076°16'0 0.0
2018-Feb-15 16:00N 36°50' W 076°16'3 6.5
2018-Feb-15 15:30N 36°52' W 076°20'1 2.6
2018-Feb-15 15:00N 36°53' W 076°21'1 1.9
2018-Feb-15 14:30N 36°53' W 076°20'1 2.6
2018-Feb-15 13:58N 36°51' W 076°19'0 0.0
2018-Feb-15 12:20N 36°51' W 076°19'0 0.0
2018-Feb-15 11:58N 36°51' W 076°19'0 0.0
2018-Feb-15 11:27N 36°51' W 076°19'3 7.2
2018-Feb-15 10:58N 36°55' W 076°20'1 1.7
2018-Feb-15 10:30N 36°55' W 076°20'0 0.7
2018-Feb-15 10:00N 36°56' W 076°20'0 0.2
2018-Feb-15 08:52N 36°56' W 076°20'0 0.4
2018-Feb-15 08:27N 36°56' W 076°20'0 0.1
2018-Feb-15 07:40N 36°56' W 076°20'0 0.7
2018-Feb-15 07:23N 36°56' W 076°20'0 0.0
2018-Feb-15 06:57N 36°56' W 076°20'3 5.5
2018-Feb-15 06:21N 36°59' W 076°19'3 6.8
2018-Feb-15 05:56N 37°00' W 076°16'3 7.6
2018-Feb-15 05:30N 37°01' W 076°12'3 6.3
2018-Feb-15 05:00N 37°03' W 076°09'5 9.2
2018-Feb-15 04:29N 37°08' W 076°12'5 9.1
2018-Feb-15 03:58N 37°11' W 076°16'1 0.2
2018-Feb-14 20:39N 37°10' W 076°14'3 7.1
2018-Feb-14 20:18N 37°08' W 076°13'2 6.8
2018-Feb-14 19:57N 37°06' W 076°11'3 6.7
2018-Feb-14 19:27N 37°03' W 076°09'3 5.4
2018-Feb-14 18:57N 37°01' W 076°11'5 9.7
2018-Feb-14 18:26N 36°60' W 076°17'5 9.0
2018-Feb-14 17:56N 36°56' W 076°20'4 8.6
2018-Feb-14 17:30N 36°52' W 076°20'4 7.8
2018-Feb-14 17:00N 36°49' W 076°17'0 0.1
2018-Feb-14 16:30N 36°49' W 076°17'0 0.3
2018-Feb-14 16:00N 36°49' W 076°17'  

Dump ship's entire track history